createdAt,value
2018-08-25T00:01:58.941Z,5.03
2018-08-25T00:05:23.582Z,4.87
2018-08-25T00:08:48.240Z,5.03
2018-08-25T00:12:12.900Z,5.17
2018-08-25T00:15:37.518Z,5.07
2018-08-25T00:19:03.215Z,5.43
2018-08-25T00:22:27.816Z,5.47
2018-08-25T00:25:52.446Z,5.03
2018-08-25T00:29:17.103Z,5.57
2018-08-25T00:32:41.766Z,5.40
2018-08-25T00:36:06.427Z,5.13
2018-08-25T00:39:31.077Z,4.87
2018-08-25T00:42:55.742Z,4.90
2018-08-25T00:46:20.416Z,5.30
2018-08-25T00:49:45.050Z,5.50
2018-08-25T00:53:09.661Z,5.17
2018-08-25T00:56:34.314Z,5.70
2018-08-25T00:59:58.919Z,5.30
2018-08-25T01:03:23.620Z,5.50
2018-08-25T01:06:48.482Z,6.60
2018-08-25T01:10:13.186Z,5.13
2018-08-25T01:13:37.828Z,5.77
2018-08-25T01:17:02.689Z,5.43
2018-08-25T01:20:27.392Z,5.03
2018-08-25T01:23:52.090Z,4.67
2018-08-25T01:27:16.729Z,4.67
2018-08-25T01:30:41.400Z,4.90
2018-08-25T01:34:06.127Z,4.63
2018-08-25T01:37:30.774Z,4.20
2018-08-25T01:40:55.415Z,4.63
2018-08-25T01:44:20.078Z,4.43
2018-08-25T01:47:44.653Z,4.50
2018-08-25T01:51:09.297Z,4.83
2018-08-25T01:54:33.934Z,5.00
2018-08-25T01:57:58.597Z,4.67
2018-08-25T02:01:23.180Z,4.83
2018-08-25T02:04:47.837Z,5.23
2018-08-25T02:08:12.476Z,4.47
2018-08-25T02:11:37.090Z,4.60
2018-08-25T02:15:01.730Z,4.70
2018-08-25T02:18:26.374Z,4.83
2018-08-25T02:21:51.000Z,4.50
2018-08-25T02:25:15.650Z,4.90
2018-08-25T02:28:40.324Z,4.83
2018-08-25T02:32:05.006Z,4.67
2018-08-25T02:35:29.650Z,4.43
2018-08-25T02:38:54.256Z,4.33
2018-08-25T02:42:18.847Z,4.33
2018-08-25T02:45:43.460Z,4.47
2018-08-25T02:49:08.247Z,4.43
2018-08-25T02:52:33.136Z,4.43
2018-08-25T02:55:57.789Z,4.17
2018-08-25T02:59:22.442Z,3.87
2018-08-25T03:02:47.076Z,4.23
2018-08-25T03:06:11.915Z,4.40
2018-08-25T03:09:36.539Z,4.73
2018-08-25T03:13:01.198Z,4.90
2018-08-25T03:16:25.821Z,4.13
2018-08-25T03:19:50.444Z,4.23
2018-08-25T03:23:15.174Z,4.47
2018-08-25T03:26:39.882Z,4.23
2018-08-25T03:30:04.571Z,4.07
2018-08-25T03:33:29.356Z,3.93
2018-08-25T03:36:53.958Z,4.37
2018-08-25T03:40:18.563Z,4.40
2018-08-25T03:43:43.200Z,4.83
2018-08-25T03:47:07.898Z,4.87
2018-08-25T03:50:32.622Z,4.30
2018-08-25T03:53:57.321Z,5.03
2018-08-25T03:57:21.979Z,4.47
2018-08-25T04:00:46.704Z,4.50
2018-08-25T04:04:11.360Z,5.20
2018-08-25T04:07:35.957Z,4.70
2018-08-25T04:11:00.581Z,4.60
2018-08-25T04:14:25.204Z,4.87
2018-08-25T04:17:49.948Z,4.60
2018-08-25T04:21:14.679Z,5.33
2018-08-25T04:24:39.244Z,4.90
2018-08-25T04:28:03.920Z,5.70
2018-08-25T04:31:28.574Z,6.07
2018-08-25T04:34:53.256Z,4.63
2018-08-25T04:38:17.929Z,5.20
2018-08-25T04:41:42.597Z,5.47
2018-08-25T04:45:07.370Z,5.30
2018-08-25T04:48:32.040Z,5.97
2018-08-25T04:51:56.702Z,5.93
2018-08-25T04:55:21.381Z,5.93
2018-08-25T04:58:46.017Z,6.27
2018-08-25T05:02:10.688Z,5.57
2018-08-25T05:07:04.386Z,5.57
2018-08-25T05:10:28.984Z,5.50
2018-08-25T05:13:53.606Z,6.33
2018-08-25T05:17:18.246Z,5.50
2018-08-25T05:20:42.920Z,5.13
2018-08-25T05:24:07.569Z,5.70
2018-08-25T05:27:32.190Z,5.80
2018-08-25T05:30:57.148Z,5.53
2018-08-25T05:34:21.794Z,5.47
2018-08-25T05:37:46.442Z,5.63
2018-08-25T05:41:11.104Z,5.23
2018-08-25T05:44:35.725Z,5.20
2018-08-25T05:48:00.341Z,5.20
2018-08-25T05:51:24.975Z,5.13
2018-08-25T05:54:49.615Z,4.90
2018-08-25T05:58:14.248Z,5.00
2018-08-25T06:01:38.901Z,4.63
2018-08-25T06:05:03.618Z,5.23
2018-08-25T06:08:28.299Z,5.10
2018-08-25T06:11:53.087Z,5.03
2018-08-25T06:15:17.802Z,4.87
2018-08-25T06:18:42.487Z,4.43
2018-08-25T06:22:07.170Z,5.90
2018-08-25T06:25:31.813Z,5.80
2018-08-25T06:28:56.493Z,5.87
2018-08-25T06:32:21.175Z,5.57
2018-08-25T06:35:45.823Z,4.83
2018-08-25T06:39:11.062Z,5.93
2018-08-25T06:42:35.806Z,4.93
2018-08-25T06:46:05.691Z,5.50
2018-08-25T06:49:30.349Z,5.73
2018-08-25T06:52:55.008Z,5.67
2018-08-25T06:56:19.676Z,5.77
2018-08-25T06:59:44.371Z,5.50
2018-08-25T07:03:09.011Z,5.27
2018-08-25T07:06:33.797Z,5.17
2018-08-25T07:09:58.541Z,4.87
2018-08-25T07:13:23.297Z,5.37
2018-08-25T07:16:48.051Z,5.43
2018-08-25T07:20:12.850Z,4.40
2018-08-25T07:23:37.617Z,5.20
2018-08-25T07:27:02.546Z,4.80
2018-08-25T07:30:27.385Z,5.80
2018-08-25T07:33:52.132Z,5.93
2018-08-25T07:37:17.027Z,5.87
2018-08-25T07:40:41.974Z,6.20
2018-08-25T07:44:07.029Z,6.50
2018-08-25T07:47:32.547Z,6.07
2018-08-25T07:50:57.589Z,5.93
2018-08-25T07:54:22.364Z,5.90
2018-08-25T07:57:47.231Z,6.53
2018-08-25T08:01:11.999Z,6.00
2018-08-25T08:04:36.779Z,6.13
2018-08-25T08:08:02.448Z,6.80
2018-08-25T08:11:27.326Z,7.13
2018-08-25T08:14:52.154Z,6.13
2018-08-25T08:18:17.266Z,6.03
2018-08-25T08:21:41.943Z,6.00
2018-08-25T08:25:06.723Z,6.00
2018-08-25T08:28:31.507Z,5.40
2018-08-25T08:31:56.237Z,5.27
2018-08-25T08:35:21.197Z,5.40
2018-08-25T08:38:45.968Z,4.90
2018-08-25T08:42:10.768Z,5.07
2018-08-25T08:45:35.751Z,5.00
2018-08-25T08:49:00.449Z,4.93
2018-08-25T08:52:25.782Z,4.40
2018-08-25T08:55:50.429Z,4.17
2018-08-25T08:59:16.266Z,4.33
2018-08-25T09:02:41.341Z,4.37
2018-08-25T09:06:06.924Z,4.03
2018-08-25T09:09:32.069Z,4.30
2018-08-25T09:12:57.793Z,4.13
2018-08-25T09:16:23.609Z,4.57
2018-08-25T09:19:50.157Z,4.10
2018-08-25T09:23:16.527Z,3.87
2018-08-25T09:26:41.918Z,3.40
2018-08-25T09:30:08.085Z,3.90
2018-08-25T09:33:33.617Z,3.60
2018-08-25T09:36:59.052Z,4.40
2018-08-25T09:40:24.600Z,4.00
2018-08-25T12:21:47.902Z,4.33
2018-08-25T12:25:12.502Z,4.97
2018-08-25T12:28:37.223Z,4.87
2018-08-25T12:32:01.919Z,4.83
2018-08-25T12:35:26.615Z,10.70
2018-08-25T12:38:51.257Z,4.77
2018-08-25T12:42:15.903Z,4.83
2018-08-25T12:45:40.619Z,6.73
2018-08-25T12:49:05.468Z,5.67
2018-08-25T12:52:30.609Z,5.20
2018-08-25T12:55:55.255Z,4.77
2018-08-25T12:59:22.714Z,6.50
2018-08-25T13:02:48.004Z,5.20
2018-08-25T13:06:12.848Z,4.40
2018-08-25T13:09:38.109Z,4.27
2018-08-25T13:13:02.815Z,3.80
2018-08-25T13:16:27.472Z,4.03
2018-08-25T13:19:52.349Z,4.33
2018-08-25T13:23:17.067Z,5.27
2018-08-25T13:26:41.803Z,4.10
2018-08-25T13:30:06.743Z,4.10
2018-08-25T13:33:31.404Z,3.90
2018-08-25T13:36:56.126Z,4.23
2018-08-25T13:40:20.841Z,4.60
2018-08-25T13:43:45.647Z,3.87
2018-08-25T13:47:10.270Z,4.37
2018-08-25T13:50:35.003Z,4.00
2018-08-25T13:53:59.714Z,3.77
2018-08-25T13:57:24.410Z,3.43
2018-08-25T14:00:49.123Z,3.17
2018-08-25T14:04:13.782Z,3.70
2018-08-25T14:07:38.488Z,3.47
2018-08-25T14:11:03.136Z,3.67
2018-08-25T14:14:27.795Z,3.73
2018-08-25T14:17:52.425Z,3.60
2018-08-25T14:21:17.126Z,3.70
2018-08-25T14:24:41.822Z,3.07
2018-08-25T14:28:06.509Z,3.57
2018-08-25T14:31:31.182Z,3.47
2018-08-25T14:34:55.862Z,3.33
2018-08-25T14:38:20.540Z,3.27
2018-08-25T14:41:45.279Z,2.97
2018-08-25T14:45:10.070Z,2.60
2018-08-25T14:48:34.758Z,2.90
2018-08-25T14:51:59.438Z,3.37
2018-08-25T14:55:24.070Z,2.90
2018-08-25T14:58:48.791Z,3.10
2018-08-25T15:02:14.541Z,2.97
2018-08-25T15:05:39.330Z,2.40
2018-08-25T15:09:05.993Z,2.63
2018-08-25T15:12:30.730Z,2.53
2018-08-25T15:15:56.672Z,2.40
2018-08-25T15:19:21.914Z,2.90
2018-08-25T15:36:31.730Z,2.37
2018-08-25T15:39:56.548Z,2.50
2018-08-25T15:46:56.704Z,2.73
2018-08-25T15:50:21.421Z,2.50
2018-08-25T15:53:46.080Z,2.83
2018-08-25T15:57:10.912Z,1.97
2018-08-25T16:00:35.664Z,2.27
2018-08-25T16:04:00.536Z,2.20
2018-08-25T16:07:25.406Z,2.63
2018-08-25T16:10:50.232Z,2.20
2018-08-25T16:14:14.943Z,2.43
2018-08-25T16:17:39.683Z,2.50
2018-08-25T16:21:04.693Z,2.70
2018-08-25T16:24:29.497Z,2.97
2018-08-25T16:27:54.285Z,3.43
2018-08-25T16:31:19.144Z,3.00
2018-08-25T16:34:44.090Z,2.10
2018-08-25T16:38:08.953Z,2.37
2018-08-25T16:41:33.729Z,2.23
2018-08-25T16:44:58.531Z,2.13
2018-08-25T16:48:24.242Z,2.60
2018-08-25T16:51:49.081Z,2.57
2018-08-25T16:55:13.864Z,2.13
2018-08-25T17:00:07.591Z,1.80
2018-08-25T17:03:32.378Z,1.93
2018-08-25T17:06:57.121Z,2.00
2018-08-25T17:10:21.961Z,2.07
2018-08-25T17:13:55.787Z,2.37
2018-08-25T17:20:53.751Z,1.67
2018-08-25T17:24:18.580Z,1.30
2018-08-25T17:27:43.439Z,1.70
2018-08-25T17:31:08.329Z,1.80
2018-08-25T17:38:07.866Z,1.97
2018-08-25T17:41:32.662Z,2.03
2018-08-25T17:44:57.886Z,1.40
2018-08-25T17:48:22.701Z,1.53
2018-08-25T17:51:47.440Z,1.80
2018-08-25T17:55:12.993Z,1.70
2018-08-25T17:58:37.815Z,1.70
2018-08-25T18:02:02.807Z,2.10
2018-08-25T18:05:27.590Z,2.30
2018-08-25T18:08:52.423Z,1.87
2018-08-25T18:12:17.215Z,2.13
2018-08-25T18:15:41.987Z,1.90
2018-08-25T18:19:07.403Z,2.00
2018-08-25T18:22:32.550Z,2.00
2018-08-25T18:25:57.799Z,2.20
2018-08-25T18:30:46.977Z,2.30
2018-08-25T18:34:11.732Z,2.10
2018-08-25T18:37:36.549Z,2.10
2018-08-25T18:41:01.624Z,2.23
2018-08-25T18:44:26.401Z,1.97
2018-08-25T18:47:51.455Z,1.77
2018-08-25T18:51:17.508Z,1.87
2018-08-25T18:54:42.988Z,2.00
2018-08-25T18:58:08.644Z,1.73
2018-08-25T19:01:33.603Z,1.93
2018-08-25T19:05:00.502Z,1.80
2018-08-25T19:08:27.240Z,1.70
2018-08-25T19:11:52.455Z,2.10
2018-08-25T19:15:17.249Z,2.00
2018-08-25T19:18:42.062Z,1.50
2018-08-25T19:22:07.080Z,1.80
2018-08-25T19:25:32.056Z,1.70
2018-08-25T19:28:57.215Z,1.63
2018-08-25T19:32:22.367Z,1.87
2018-08-25T19:35:47.412Z,10.67
2018-08-25T19:39:12.521Z,3.37
2018-08-25T19:42:37.664Z,1.93
2018-08-25T19:46:02.856Z,1.40
2018-08-25T19:49:28.106Z,1.80
2018-08-25T19:52:53.240Z,1.67
2018-08-25T19:56:18.226Z,2.17
2018-08-25T19:59:43.349Z,1.60
2018-08-25T20:03:08.378Z,1.30
2018-08-25T20:06:33.217Z,1.53
2018-08-25T20:09:58.389Z,1.63
2018-08-25T20:13:23.308Z,2.07
2018-08-25T20:16:48.251Z,1.40
2018-08-25T20:20:13.301Z,1.47
2018-08-25T20:23:38.316Z,1.83
2018-08-25T20:27:03.202Z,1.50
2018-08-25T20:30:28.054Z,1.50
2018-08-25T20:33:52.854Z,1.57
2018-08-25T20:37:17.958Z,1.50
2018-08-25T20:40:43.182Z,1.47
2018-08-25T20:44:08.603Z,1.70
2018-08-25T20:47:33.421Z,1.50
2018-08-25T20:50:58.318Z,1.70
2018-08-25T20:54:23.168Z,2.10
2018-08-25T20:57:47.906Z,1.30
2018-08-25T21:01:12.766Z,1.47
2018-08-25T21:04:37.630Z,1.27
2018-08-25T21:08:02.445Z,1.60
2018-08-25T21:11:27.293Z,1.23
2018-08-25T21:14:52.157Z,1.70
2018-08-25T21:18:17.228Z,1.53
2018-08-25T21:21:42.105Z,1.70
2018-08-25T21:25:07.239Z,1.70
2018-08-25T21:28:32.110Z,1.80
2018-08-25T21:31:56.950Z,1.77
2018-08-25T21:35:21.730Z,1.43
2018-08-25T21:38:46.471Z,1.57
2018-08-25T21:42:11.382Z,1.50
2018-08-25T21:45:36.326Z,1.60
2018-08-25T21:49:01.055Z,1.70
2018-08-25T21:52:26.553Z,1.60
2018-08-25T21:55:51.251Z,1.57
2018-08-25T21:59:16.027Z,1.63
2018-08-25T22:02:40.793Z,1.40
2018-08-25T22:06:05.786Z,1.60
2018-08-25T22:09:30.496Z,1.60
2018-08-25T22:12:55.213Z,1.50
2018-08-25T22:16:20.250Z,1.90
2018-08-25T22:19:45.181Z,1.70
2018-08-25T22:23:09.876Z,1.33
2018-08-25T22:26:35.401Z,1.53
2018-08-25T22:30:00.268Z,1.33
2018-08-25T22:33:25.043Z,2.03
2018-08-25T22:36:51.401Z,1.67
2018-08-25T22:40:16.228Z,1.93
2018-08-25T22:43:40.986Z,1.50
2018-08-25T22:47:05.964Z,1.77
2018-08-25T22:50:30.867Z,1.90
2018-08-25T22:53:55.605Z,2.10
2018-08-25T22:57:20.263Z,1.70
2018-08-25T23:00:45.113Z,1.70
2018-08-25T23:04:10.838Z,1.90
2018-08-25T23:07:35.704Z,2.03
2018-08-25T23:11:00.451Z,1.60
2018-08-25T23:14:25.129Z,1.67
2018-08-25T23:17:49.782Z,1.43
2018-08-25T23:21:14.493Z,1.50
2018-08-25T23:24:39.203Z,1.80
2018-08-25T23:28:03.951Z,1.50
2018-08-25T23:31:28.706Z,1.63
2018-08-25T23:34:53.415Z,1.70
2018-08-25T23:38:18.186Z,1.93
2018-08-25T23:41:42.980Z,1.60
2018-08-25T23:45:07.708Z,1.80
2018-08-25T23:48:32.409Z,1.43
2018-08-25T23:51:57.071Z,1.73
2018-08-25T23:55:21.862Z,1.77
2018-08-25T23:58:46.620Z,1.83
